Overview Statistics Trail Chart Weather Telemetry Raw packets
 

This is the latest recevied weather packets stored in our database for station/object KQ7A. If no packets are shown the sender has not sent any weather packets the latest 10 day(s).

<< 80 81 82 83 84 85 86 >>
Time Temp. Humidity Pressure Rain* Wind** Luminosity Snow
1788100007 8.89° C 69% 1020.9 hPa 0 mm - 38 W/m² -
1788099702 7.22° C 74% 1021.1 hPa 0 mm - 27 W/m² -
1788099397 6.67° C 76% 1020.9 hPa 0 mm - 24 W/m² -
1788099092 6.11° C 81% 1020.8 hPa 0 mm - 23 W/m² -
1788098787 6.11° C 84% 1020.7 hPa 0 mm - 20 W/m² -
1788098482 5.56° C 86% 1020.7 hPa 0 mm - 19 W/m² -
1788098182 5.56° C 85% 1020.7 hPa 0 mm - 16 W/m² -
1788097877 5.56° C 84% 1020.6 hPa 0 mm - 13 W/m² -
1788097573 5.56° C 85% 1020.4 hPa 0 mm - 11 W/m² -
1788097268 5.56° C 83% 1020 hPa 0 mm - 9 W/m² -
1788096963 5.56° C 82% 1020.4 hPa 0 mm - 6 W/m² -
1788096658 6.11° C 77% 1020.3 hPa 0 mm - 3 W/m² -
1788096355 6.67° C 75% 1020.3 hPa 0 mm - 1 W/m² -
1788096050 7.78° C 72% 1020.1 hPa 0 mm - 0 W/m² -
1788095749 8.33° C 71% 1020.4 hPa 0 mm - 0 W/m² -
1788095443 7.78° C 68% 1019.9 hPa 0 mm - 0 W/m² -
1788095138 7.22° C 72% 1020 hPa 0 mm - 0 W/m² -
1788094834 7.22° C 72% 1019.9 hPa 0 mm - 0 W/m² -
1788094528 7.78° C 69% 1020 hPa 0 mm - 0 W/m² -
1788094227 8.89° C 66% 1019.8 hPa 0 mm - 0 W/m² -
1788093926 9.44° C 65% 1019.8 hPa 0 mm - 0 W/m² -
1788093622 10° C 59% 1019.9 hPa 0 mm - 0 W/m² -
1788093319 10° C 59% 1019.6 hPa 0 mm - 0 W/m² -
1788093014 9.44° C 62% 1019.8 hPa 0 mm - 0 W/m² -
1788092711 7.78° C 69% 1019.8 hPa 0 mm - 0 W/m² -

* Rain latest hour (hover to see other rain measurements)
** Current wind speed in m/s (hover to see current wind gust speed)